Time;durP1;ratioP1;P1;durP2;ratioP2;P2;SDS_P1;SDS_P2;PMS_P1;PMS_P2;Temp;Humidity;BMP_temperature;BMP_pressure;BME280_temperature;BME280_humidity;BME280_pressure;Samples;Min_cycle;Max_cycle;Signal;HPM_P1;HPM_P2
2023/03/01 00:00:37;;;;;;;9.73;7.37;;;;;;;;;;5053590;28;20013;-58
2023/03/01 00:03:03;;;;;;;8.53;6.83;;;;;;;;;;5053771;28;20037;-57
2023/03/01 00:05:29;;;;;;;8.93;5.57;;;;;;;;;;5054192;28;20036;-58
2023/03/01 00:07:55;;;;;;;8.77;7.60;;;;;;;;;;5053865;28;20025;-58
2023/03/01 00:10:21;;;;;;;10.20;7.10;;;;;;;;;;5053543;28;20032;-58
2023/03/01 00:12:47;;;;;;;8.53;6.73;;;;;;;;;;5053770;28;20132;-58
2023/03/01 00:15:13;;;;;;;10.43;7.53;;;;;;;;;;5053325;28;20539;-58
2023/03/01 00:17:39;;;;;;;7.03;5.03;;;;;;;;;;5053522;28;20029;-58
2023/03/01 00:20:09;;;;;;;8.70;6.87;;;;;;;;;;5053468;28;20021;-58
2023/03/01 00:22:36;;;;;;;10.45;5.78;;;;;;;;;;5053013;28;20033;-58
2023/03/01 00:25:01;;;;;;;11.20;8.83;;;;;;;;;;5053669;28;20024;-58
2023/03/01 00:27:27;;;;;;;8.30;6.27;;;;;;;;;;5052224;28;20021;-58
2023/03/01 00:29:53;;;;;;;11.40;7.20;;;;;;;;;;5053426;28;20120;-61
2023/03/01 00:32:19;;;;;;;7.20;5.73;;;;;;;;;;5053637;28;20406;-58
2023/03/01 00:34:53;;;;;;;10.97;5.77;;;;;;;;;;5053729;28;20033;-58
2023/03/01 00:37:20;;;;;;;8.13;6.53;;;;;;;;;;5053529;28;20087;-58
2023/03/01 00:39:46;;;;;;;9.60;6.53;;;;;;;;;;5053234;28;20029;-58
2023/03/01 00:42:12;;;;;;;9.90;8.30;;;;;;;;;;5053118;28;20072;-58
2023/03/01 00:44:38;;;;;;;9.03;6.57;;;;;;;;;;5053225;28;20025;-58
2023/03/01 00:47:04;;;;;;;10.20;5.53;;;;;;;;;;5056694;28;20104;-58
2023/03/01 00:49:30;;;;;;;10.03;6.27;;;;;;;;;;5057816;28;20049;-58
2023/03/01 00:51:56;;;;;;;9.10;6.40;;;;;;;;;;5057035;28;20079;-58
2023/03/01 00:54:22;;;;;;;8.90;7.40;;;;;;;;;;5057219;28;20057;-59
2023/03/01 00:56:48;;;;;;;9.50;8.40;;;;;;;;;;5057204;28;20025;-58
2023/03/01 00:59:14;;;;;;;10.93;7.67;;;;;;;;;;5056868;28;20037;-58
2023/03/01 01:01:40;;;;;;;7.50;5.83;;;;;;;;;;5056793;28;20075;-58
2023/03/01 01:04:08;;;;;;;8.83;7.43;;;;;;;;;;5056719;28;20459;-58
2023/03/01 01:06:35;;;;;;;6.93;5.87;;;;;;;;;;5057025;28;20025;-59
2023/03/01 01:09:02;;;;;;;11.87;6.83;;;;;;;;;;5056753;28;20453;-58
2023/03/01 01:11:29;;;;;;;7.70;5.20;;;;;;;;;;5057087;28;20032;-59
2023/03/01 01:13:55;;;;;;;8.93;6.37;;;;;;;;;;5057236;28;20408;-58
2023/03/01 01:16:22;;;;;;;5.83;4.87;;;;;;;;;;5056855;28;20020;-58
2023/03/01 01:18:48;;;;;;;8.90;8.00;;;;;;;;;;5056515;28;20029;-58
2023/03/01 01:21:15;;;;;;;9.53;6.57;;;;;;;;;;5056187;28;20039;-59
2023/03/01 01:23:42;;;;;;;11.30;9.00;;;;;;;;;;5055996;28;20033;-58
2023/03/01 01:26:09;;;;;;;12.93;8.27;;;;;;;;;;5057480;28;20094;-59
2023/03/01 01:28:35;;;;;;;10.53;6.80;;;;;;;;;;5056344;28;20032;-58
2023/03/01 01:31:01;;;;;;;10.80;7.73;;;;;;;;;;5056405;28;20035;-58
2023/03/01 01:33:27;;;;;;;7.60;5.57;;;;;;;;;;5056267;28;20526;-58
2023/03/01 01:35:53;;;;;;;11.67;6.97;;;;;;;;;;5056814;28;20055;-58
2023/03/01 01:38:21;;;;;;;9.27;7.00;;;;;;;;;;5055895;28;20029;-59
2023/03/01 01:40:47;;;;;;;8.07;6.30;;;;;;;;;;5056597;28;20033;-59
2023/03/01 01:43:29;;;;;;;9.90;6.00;;;;;;;;;;5056031;28;20029;-59
2023/03/01 01:45:56;;;;;;;6.67;5.73;;;;;;;;;;5056383;28;20028;-59
2023/03/01 01:48:24;;;;;;;9.53;8.63;;;;;;;;;;5056213;28;20067;-59
2023/03/01 01:50:54;;;;;;;7.33;6.23;;;;;;;;;;5056196;28;20099;-58
2023/03/01 01:53:20;;;;;;;9.30;6.18;;;;;;;;;;5055555;28;20025;-59
2023/03/01 01:55:48;;;;;;;12.97;8.67;;;;;;;;;;5055876;28;20471;-56
2023/03/01 01:58:17;;;;;;;8.03;7.23;;;;;;;;;;5056039;28;20032;-58
2023/03/01 02:00:43;;;;;;;9.77;6.53;;;;;;;;;;5056084;28;20029;-59
2023/03/01 02:03:11;;;;;;;11.97;8.43;;;;;;;;;;5055916;28;20037;-59
2023/03/01 02:05:43;;;;;;;9.27;8.00;;;;;;;;;;5056231;28;20083;-58
2023/03/01 02:08:11;;;;;;;10.53;8.80;;;;;;;;;;5055600;28;20051;-59
2023/03/01 02:10:38;;;;;;;8.00;6.77;;;;;;;;;;5055214;28;20493;-59
2023/03/01 02:13:04;;;;;;;6.63;5.93;;;;;;;;;;5055487;28;20049;-58
2023/03/01 02:15:36;;;;;;;13.50;9.03;;;;;;;;;;5055683;28;20033;-59
2023/03/01 02:18:03;;;;;;;11.33;8.37;;;;;;;;;;5056207;28;20029;-59
2023/03/01 02:20:38;;;;;;;10.70;9.27;;;;;;;;;;5055584;28;20067;-59
2023/03/01 02:23:05;;;;;;;7.50;6.00;;;;;;;;;;5055245;28;20033;-59
2023/03/01 02:25:54;;;;;;;11.27;7.50;;;;;;;;;;5055299;28;20029;-59
2023/03/01 02:28:23;;;;;;;12.17;7.90;;;;;;;;;;5044880;28;20390;-59
2023/03/01 02:33:36;;;;;;;7.70;6.97;;;;;;;;;;5055327;28;20040;-59
2023/03/01 02:36:07;;;;;;;10.43;9.20;;;;;;;;;;5054962;28;20025;-59
2023/03/01 02:38:33;;;;;;;7.53;6.80;;;;;;;;;;5055543;28;20032;-58
2023/03/01 02:41:00;;;;;;;9.07;8.20;;;;;;;;;;5054876;28;20037;-59
2023/03/01 02:43:28;;;;;;;12.93;7.33;;;;;;;;;;5054898;28;20033;-59
2023/03/01 02:45:57;;;;;;;13.03;9.00;;;;;;;;;;5054975;28;20107;-59
2023/03/01 02:48:23;;;;;;;13.45;6.00;;;;;;;;;;5054736;28;20032;-59
2023/03/01 02:51:06;;;;;;;13.37;9.93;;;;;;;;;;5055055;28;20025;-59
2023/03/01 02:53:38;;;;;;;8.80;7.87;;;;;;;;;;5055268;28;20021;-59
2023/03/01 02:56:04;;;;;;;9.77;7.70;;;;;;;;;;5055460;28;20029;-59
2023/03/01 02:58:30;;;;;;;13.30;9.23;;;;;;;;;;5054583;28;20071;-59
2023/03/01 03:00:57;;;;;;;17.00;9.63;;;;;;;;;;5054528;28;20029;-59
2023/03/01 03:03:23;;;;;;;10.40;7.47;;;;;;;;;;5054786;28;20486;-59
2023/03/01 03:05:49;;;;;;;11.27;7.87;;;;;;;;;;5054778;28;20036;-59
2023/03/01 03:08:23;;;;;;;9.20;7.53;;;;;;;;;;5054001;28;20099;-59
2023/03/01 03:10:49;;;;;;;12.43;9.40;;;;;;;;;;5054921;28;20029;-59
2023/03/01 03:13:16;;;;;;;11.13;8.20;;;;;;;;;;5054244;28;20052;-59
2023/03/01 03:15:43;;;;;;;13.83;9.27;;;;;;;;;;5054324;28;20020;-59
2023/03/01 03:18:11;;;;;;;6.20;5.67;;;;;;;;;;5055035;28;20032;-59
2023/03/01 03:20:37;;;;;;;9.03;8.17;;;;;;;;;;5054255;28;20536;-59
2023/03/01 03:23:03;;;;;;;13.53;9.27;;;;;;;;;;5053951;28;20033;-59
2023/03/01 03:25:29;;;;;;;9.40;7.87;;;;;;;;;;5054694;28;20029;-59
2023/03/01 03:27:59;;;;;;;10.80;8.10;;;;;;;;;;5054100;28;20025;-59
2023/03/01 03:30:29;;;;;;;13.50;9.30;;;;;;;;;;5054059;28;20021;-59
2023/03/01 03:32:56;;;;;;;13.07;10.00;;;;;;;;;;5053731;28;20384;-59
2023/03/01 03:35:24;;;;;;;10.80;8.03;;;;;;;;;;5054511;28;20029;-59
2023/03/01 03:38:02;;;;;;;7.97;7.07;;;;;;;;;;5053865;28;20024;-59
2023/03/01 03:40:29;;;;;;;9.47;7.67;;;;;;;;;;5054269;28;20175;-59
2023/03/01 03:42:55;;;;;;;8.47;7.33;;;;;;;;;;5053792;28;20033;-59
2023/03/01 03:45:21;;;;;;;13.63;7.13;;;;;;;;;;5054180;28;20025;-58
2023/03/01 03:47:47;;;;;;;12.53;9.03;;;;;;;;;;5054015;28;20103;-59
2023/03/01 03:50:14;;;;;;;13.30;8.60;;;;;;;;;;5053810;28;20035;-59
2023/03/01 03:52:40;;;;;;;9.93;8.70;;;;;;;;;;5054030;28;20031;-59
2023/03/01 03:55:10;;;;;;;9.80;8.00;;;;;;;;;;5054300;28;20043;-59
2023/03/01 03:57:36;;;;;;;11.77;7.23;;;;;;;;;;5053671;28;20029;-60
2023/03/01 04:00:04;;;;;;;13.00;8.63;;;;;;;;;;5053948;28;20032;-59
2023/03/01 04:02:30;;;;;;;15.27;10.13;;;;;;;;;;5053459;28;20025;-59
2023/03/01 04:04:56;;;;;;;9.03;7.40;;;;;;;;;;5053345;28;20041;-59
2023/03/01 04:07:22;;;;;;;14.70;9.27;;;;;;;;;;5053557;28;20104;-58
2023/03/01 04:09:48;;;;;;;10.33;8.83;;;;;;;;;;5053543;28;20059;-59
2023/03/01 04:12:14;;;;;;;8.23;5.07;;;;;;;;;;5053581;28;20025;-59
2023/03/01 04:14:45;;;;;;;11.13;6.87;;;;;;;;;;5054476;28;20056;-59
2023/03/01 04:17:12;;;;;;;13.93;10.23;;;;;;;;;;5053568;28;20021;-59
2023/03/01 04:19:38;;;;;;;8.80;7.40;;;;;;;;;;5053921;28;20059;-59
2023/03/01 04:22:09;;;;;;;13.20;10.27;;;;;;;;;;5057067;28;20020;-59
2023/03/01 04:24:34;;;;;;;;;;;;;;;;;;5058806;28;20039;-59
2023/03/01 04:27:00;;;;;;;12.37;8.03;;;;;;;;;;5057354;28;20292;-58
2023/03/01 04:29:26;;;;;;;12.10;8.90;;;;;;;;;;5057437;28;20029;-59
2023/03/01 04:31:52;;;;;;;15.33;9.17;;;;;;;;;;5057280;28;20116;-59
2023/03/01 04:34:18;;;;;;;12.40;9.23;;;;;;;;;;5057291;28;20455;-59
2023/03/01 04:36:44;;;;;;;8.97;8.07;;;;;;;;;;5057977;28;20370;-59
2023/03/01 04:39:13;;;;;;;18.60;5.53;;;;;;;;;;5057944;28;20029;-59
2023/03/01 04:41:39;;;;;;;12.33;8.90;;;;;;;;;;5057201;28;20033;-59
2023/03/01 04:44:06;;;;;;;11.27;9.30;;;;;;;;;;5057204;28;20040;-59
2023/03/01 04:46:32;;;;;;;13.17;9.30;;;;;;;;;;5057549;28;20025;-59
2023/03/01 04:48:58;;;;;;;10.63;8.03;;;;;;;;;;5056466;28;20025;-59
2023/03/01 04:51:24;;;;;;;10.93;9.37;;;;;;;;;;5057111;28;20029;-59
2023/03/01 04:53:50;;;;;;;10.77;7.37;;;;;;;;;;5057095;28;20025;-59
2023/03/01 04:56:20;;;;;;;9.63;7.90;;;;;;;;;;5057849;28;20032;-59
2023/03/01 04:58:46;;;;;;;10.70;9.07;;;;;;;;;;5056915;28;20029;-59
2023/03/01 05:01:17;;;;;;;12.47;7.83;;;;;;;;;;5056856;28;20021;-59
2023/03/01 05:03:47;;;;;;;10.95;8.25;;;;;;;;;;5057117;28;20033;-59
2023/03/01 05:06:13;;;;;;;12.35;10.55;;;;;;;;;;5056936;28;20474;-59
2023/03/01 05:08:40;;;;;;;7.60;6.83;;;;;;;;;;5057054;28;20099;-59
2023/03/01 05:11:08;;;;;;;10.13;8.13;;;;;;;;;;5057288;28;20052;-59
2023/03/01 05:13:34;;;;;;;13.97;8.33;;;;;;;;;;5057180;28;20080;-59
2023/03/01 05:16:01;;;;;;;12.47;9.87;;;;;;;;;;5056636;28;20028;-59
2023/03/01 05:18:28;;;;;;;18.57;10.73;;;;;;;;;;5056907;28;20064;-59
2023/03/01 05:20:56;;;;;;;9.87;6.60;;;;;;;;;;5056889;28;20020;-59
2023/03/01 05:23:22;;;;;;;8.43;7.20;;;;;;;;;;5056384;28;20036;-59
2023/03/01 05:25:49;;;;;;;11.10;9.07;;;;;;;;;;5056467;28;20037;-59
2023/03/01 05:28:15;;;;;;;14.27;10.03;;;;;;;;;;5056368;28;20515;-59
2023/03/01 05:30:41;;;;;;;11.43;8.87;;;;;;;;;;5056216;28;20108;-58
2023/03/01 05:33:13;;;;;;;13.00;8.73;;;;;;;;;;5056888;28;20064;-59
2023/03/01 05:35:39;;;;;;;10.47;7.00;;;;;;;;;;5056783;28;20052;-59
2023/03/01 05:38:05;;;;;;;8.07;7.30;;;;;;;;;;5056796;28;20036;-59
2023/03/01 05:40:33;;;;;;;12.57;11.03;;;;;;;;;;5056399;28;20025;-59
2023/03/01 05:42:59;;;;;;;12.37;9.40;;;;;;;;;;5056252;28;20033;-59
2023/03/01 05:45:26;;;;;;;12.87;9.93;;;;;;;;;;5056400;28;20021;-59
2023/03/01 05:47:52;;;;;;;9.00;7.53;;;;;;;;;;5056076;28;20033;-59
2023/03/01 05:50:19;;;;;;;13.33;10.20;;;;;;;;;;5056295;28;20032;-59
2023/03/01 05:52:49;;;;;;;8.67;5.73;;;;;;;;;;5055823;28;20060;-58
2023/03/01 05:55:20;;;;;;;11.60;10.23;;;;;;;;;;5056155;28;20025;-59
2023/03/01 05:57:46;;;;;;;12.25;9.10;;;;;;;;;;5056116;28;20332;-59
2023/03/01 06:00:13;;;;;;;10.93;9.83;;;;;;;;;;5055995;28;20029;-59
2023/03/01 06:02:39;;;;;;;10.57;8.80;;;;;;;;;;5055653;28;20128;-59
2023/03/01 06:05:06;;;;;;;15.00;7.77;;;;;;;;;;5056297;28;20033;-59
2023/03/01 06:07:32;;;;;;;9.77;8.20;;;;;;;;;;5055442;28;20033;-58
2023/03/01 06:09:58;;;;;;;9.83;8.77;;;;;;;;;;5055550;28;20048;-59
2023/03/01 06:12:24;;;;;;;13.03;10.10;;;;;;;;;;5055541;28;20110;-59
2023/03/01 06:14:50;;;;;;;11.63;8.73;;;;;;;;;;5056184;28;20045;-59
2023/03/01 06:17:16;;;;;;;9.20;7.83;;;;;;;;;;5056216;28;20108;-55
2023/03/01 06:19:42;;;;;;;14.50;9.13;;;;;;;;;;5055657;28;20056;-54
2023/03/01 06:22:08;;;;;;;12.40;9.07;;;;;;;;;;5055243;28;20025;-55
2023/03/01 06:24:34;;;;;;;13.63;8.60;;;;;;;;;;5055725;28;20021;-55
2023/03/01 06:27:00;;;;;;;9.73;8.73;;;;;;;;;;5055307;28;20032;-56
2023/03/01 06:29:26;;;;;;;11.93;8.37;;;;;;;;;;5055208;28;20029;-56
2023/03/01 06:31:52;;;;;;;11.23;9.47;;;;;;;;;;5055415;28;20443;-56
2023/03/01 06:34:18;;;;;;;10.20;9.10;;;;;;;;;;5055505;28;20430;-54
2023/03/01 06:36:44;;;;;;;12.60;10.97;;;;;;;;;;5055538;28;20029;-55
2023/03/01 06:39:10;;;;;;;14.67;8.10;;;;;;;;;;5053778;28;20116;-53
2023/03/01 06:41:36;;;;;;;14.73;8.10;;;;;;;;;;5055191;28;20028;-56
2023/03/01 06:44:02;;;;;;;11.80;8.03;;;;;;;;;;5054061;28;20069;-56
2023/03/01 06:46:28;;;;;;;7.43;6.57;;;;;;;;;;5055254;28;20040;-54
2023/03/01 06:48:54;;;;;;;12.73;9.03;;;;;;;;;;5054994;28;20029;-56
2023/03/01 06:51:20;;;;;;;11.20;7.83;;;;;;;;;;5055258;28;20029;-53
2023/03/01 06:53:46;;;;;;;7.43;6.43;;;;;;;;;;5055039;28;20060;-54
2023/03/01 06:56:12;;;;;;;12.63;7.77;;;;;;;;;;5055546;28;20053;-54
2023/03/01 06:58:38;;;;;;;11.33;10.13;;;;;;;;;;5055119;28;20040;-52
2023/03/01 07:01:08;;;;;;;14.57;10.57;;;;;;;;;;5054684;28;20025;-53
2023/03/01 07:03:34;;;;;;;12.43;9.90;;;;;;;;;;5054956;28;20438;-56
2023/03/01 07:06:00;;;;;;;13.17;8.57;;;;;;;;;;5055070;28;20167;-55
2023/03/01 07:08:26;;;;;;;12.60;9.40;;;;;;;;;;5055205;28;20063;-54
2023/03/01 07:10:58;;;;;;;14.47;10.63;;;;;;;;;;5055064;28;20021;-56
2023/03/01 07:13:24;;;;;;;11.60;8.23;;;;;;;;;;5054997;28;20049;-55
2023/03/01 07:15:50;;;;;;;13.83;9.90;;;;;;;;;;5054859;28;20025;-56
2023/03/01 07:18:16;;;;;;;14.30;10.33;;;;;;;;;;5054864;28;20031;-56
2023/03/01 07:20:42;;;;;;;15.07;11.00;;;;;;;;;;5054731;28;20024;-54
2023/03/01 07:23:08;;;;;;;13.23;10.90;;;;;;;;;;5053797;28;20083;-56
2023/03/01 07:25:34;;;;;;;13.53;9.97;;;;;;;;;;5054484;28;20082;-55
2023/03/01 07:28:01;;;;;;;9.23;8.13;;;;;;;;;;5054112;28;20447;-56
2023/03/01 07:30:28;;;;;;;14.23;9.40;;;;;;;;;;5054465;28;20021;-56
2023/03/01 07:32:54;;;;;;;9.07;7.70;;;;;;;;;;5054550;28;20029;-54
2023/03/01 07:35:20;;;;;;;11.60;9.20;;;;;;;;;;5054164;28;20348;-56
2023/03/01 07:37:46;;;;;;;9.53;8.43;;;;;;;;;;5054290;28;20115;-56
2023/03/01 07:40:13;;;;;;;19.83;11.70;;;;;;;;;;5054003;28;20143;-54
2023/03/01 07:42:39;;;;;;;13.70;12.20;;;;;;;;;;5053523;28;20471;-56
2023/03/01 07:45:05;;;;;;;14.73;9.60;;;;;;;;;;5054488;28;20017;-56
2023/03/01 07:47:32;;;;;;;10.03;8.67;;;;;;;;;;5053830;28;20036;-54
2023/03/01 07:49:58;;;;;;;11.80;10.63;;;;;;;;;;5054343;28;20036;-56
2023/03/01 07:52:24;;;;;;;8.60;6.43;;;;;;;;;;5053907;28;20029;-54
2023/03/01 07:54:50;;;;;;;12.47;8.90;;;;;;;;;;5054330;28;20036;-54
2023/03/01 07:57:16;;;;;;;8.87;7.97;;;;;;;;;;5053769;28;20025;-51
2023/03/01 07:59:42;;;;;;;13.97;11.87;;;;;;;;;;5053881;28;20025;-55
2023/03/01 08:02:08;;;;;;;12.43;11.13;;;;;;;;;;5053920;28;20059;-54
2023/03/01 08:04:34;;;;;;;11.07;8.03;;;;;;;;;;5053684;28;20057;-53
2023/03/01 08:07:00;;;;;;;7.53;6.87;;;;;;;;;;5053612;28;20525;-56
2023/03/01 08:09:26;;;;;;;9.63;8.23;;;;;;;;;;5053475;28;20456;-56
2023/03/01 08:11:54;;;;;;;9.80;8.03;;;;;;;;;;5054114;28;20037;-55
2023/03/01 08:14:20;;;;;;;16.07;11.10;;;;;;;;;;5053284;28;20052;-53
2023/03/01 08:16:46;;;;;;;12.43;10.63;;;;;;;;;;5053575;28;20036;-54
2023/03/01 08:19:12;;;;;;;8.73;7.97;;;;;;;;;;5053582;28;20378;-55
2023/03/01 08:21:38;;;;;;;13.80;10.03;;;;;;;;;;5053790;28;20033;-52
2023/03/01 08:24:05;;;;;;;11.23;9.83;;;;;;;;;;5053668;28;20056;-51
2023/03/01 08:26:32;;;;;;;14.90;9.33;;;;;;;;;;5054037;28;20413;-54
2023/03/01 08:28:58;;;;;;;16.67;10.57;;;;;;;;;;5054244;28;20032;-55
2023/03/01 08:31:28;;;;;;;14.47;10.60;;;;;;;;;;5053413;28;20352;-55
2023/03/01 08:33:56;;;;;;;17.85;12.70;;;;;;;;;;5053418;28;20418;-53
2023/03/01 08:36:25;;;;;;;15.47;11.67;;;;;;;;;;5053059;28;20104;-53
2023/03/01 08:38:51;;;;;;;15.13;10.87;;;;;;;;;;5053855;28;20463;-54
2023/03/01 08:41:17;;;;;;;11.47;9.70;;;;;;;;;;5053321;28;20039;-55
2023/03/01 08:43:43;;;;;;;15.27;11.23;;;;;;;;;;5053667;28;20032;-55
2023/03/01 08:46:09;;;;;;;15.00;13.50;;;;;;;;;;5053577;28;20466;-52
2023/03/01 08:48:35;;;;;;;12.30;9.83;;;;;;;;;;5053586;28;20096;-51
2023/03/01 08:51:09;;;;;;;14.10;9.73;;;;;;;;;;5053282;28;20516;-55
2023/03/01 08:53:35;;;;;;;14.43;12.67;;;;;;;;;;5053541;28;20506;-56
2023/03/01 08:56:02;;;;;;;13.33;10.97;;;;;;;;;;5053197;28;20103;-56
2023/03/01 08:58:28;;;;;;;14.83;12.27;;;;;;;;;;5053130;28;20043;-53
2023/03/01 09:00:56;;;;;;;13.57;10.10;;;;;;;;;;5053156;28;20351;-54
2023/03/01 09:03:22;;;;;;;11.23;9.67;;;;;;;;;;5053800;28;20493;-53
2023/03/01 09:05:50;;;;;;;15.57;12.43;;;;;;;;;;5053461;28;20037;-55
2023/03/01 09:08:15;;;;;;;11.33;9.67;;;;;;;;;;5056748;28;20544;-56
2023/03/01 09:10:42;;;;;;;12.83;9.83;;;;;;;;;;5056543;28;20029;-51
2023/03/01 09:13:08;;;;;;;14.03;11.03;;;;;;;;;;5056732;28;20052;-51
2023/03/01 09:15:34;;;;;;;9.60;7.73;;;;;;;;;;5056668;28;20033;-56
2023/03/01 09:18:00;;;;;;;14.73;10.63;;;;;;;;;;5056657;28;20459;-52
2023/03/01 09:20:26;;;;;;;15.17;10.73;;;;;;;;;;5056612;28;20029;-53
2023/03/01 09:22:52;;;;;;;14.23;11.23;;;;;;;;;;5056143;28;20033;-52
2023/03/01 09:25:18;;;;;;;11.97;9.87;;;;;;;;;;5057093;28;20108;-52
2023/03/01 09:27:44;;;;;;;15.53;8.97;;;;;;;;;;5056737;28;20025;-55
2023/03/01 09:30:10;;;;;;;11.10;9.30;;;;;;;;;;5056690;28;20036;-52
2023/03/01 09:32:36;;;;;;;15.23;12.90;;;;;;;;;;5056299;28;20064;-53
2023/03/01 09:35:05;;;;;;;16.50;12.00;;;;;;;;;;5056018;28;20072;-53
2023/03/01 09:37:32;;;;;;;15.80;11.70;;;;;;;;;;5056118;28;20025;-55
2023/03/01 09:39:58;;;;;;;14.43;10.63;;;;;;;;;;5056207;28;20157;-55
2023/03/01 09:42:24;;;;;;;16.20;13.37;;;;;;;;;;5056892;28;20037;-51
2023/03/01 09:44:53;;;;;;;12.80;9.40;;;;;;;;;;5056698;28;20359;-54
2023/03/01 09:47:21;;;;;;;15.63;11.43;;;;;;;;;;5056107;28;20094;-54
2023/03/01 09:50:00;;;;;;;17.67;10.70;;;;;;;;;;5054499;28;20029;-57
2023/03/01 09:52:38;;;;;;;13.90;10.43;;;;;;;;;;5056375;28;20058;-54
2023/03/01 09:55:09;;;;;;;16.27;11.30;;;;;;;;;;5055861;28;20028;-55
2023/03/01 09:57:38;;;;;;;11.18;9.38;;;;;;;;;;5056695;28;20341;-56
2023/03/01 10:00:17;;;;;;;16.47;11.27;;;;;;;;;;5055771;28;20036;-56
2023/03/01 10:02:52;;;;;;;11.30;9.73;;;;;;;;;;5056051;28;20037;-55
2023/03/01 10:05:37;;;;;;;17.60;11.10;;;;;;;;;;5056002;28;20025;-53
2023/03/01 10:08:20;;;;;;;14.37;11.43;;;;;;;;;;5055408;28;20493;-57
2023/03/01 10:10:47;;;;;;;15.47;12.07;;;;;;;;;;5056146;28;20112;-53
2023/03/01 10:13:19;;;;;;;11.67;10.43;;;;;;;;;;5055703;28;20074;-55
2023/03/01 10:15:49;;;;;;;14.02;9.80;;;;;;;;;;5055532;28;20097;-55
2023/03/01 10:18:19;;;;;;;17.10;12.17;;;;;;;;;;5054005;28;20025;-52
2023/03/01 10:21:15;;;;;;;13.30;11.20;;;;;;;;;;5055791;28;20029;-53
2023/03/01 10:23:41;;;;;;;12.70;10.00;;;;;;;;;;5050753;28;20045;-52
2023/03/01 10:26:20;;;;;;;16.08;11.05;;;;;;;;;;5056198;28;20025;-54
2023/03/01 10:28:48;;;;;;;15.93;10.50;;;;;;;;;;5055681;28;20096;-52
2023/03/01 10:31:18;;;;;;;17.02;11.70;;;;;;;;;;5055388;28;20033;-50
2023/03/01 10:33:44;;;;;;;15.77;11.25;;;;;;;;;;5055865;28;20029;-53
2023/03/01 10:36:10;;;;;;;12.30;9.83;;;;;;;;;;5055891;28;20020;-54
2023/03/01 10:38:49;;;;;;;14.60;11.25;;;;;;;;;;5054746;28;20479;-52
2023/03/01 10:41:14;;;;;;;14.10;11.63;;;;;;;;;;5055109;28;20090;-51
2023/03/01 10:43:45;;;;;;;13.68;10.73;;;;;;;;;;5054823;28;20033;-55
2023/03/01 10:46:11;;;;;;;;;;;;;;;;;;5055528;28;20013;-57
2023/03/01 10:48:37;;;;;;;16.38;10.98;;;;;;;;;;5055372;28;19909;-54
2023/03/01 10:51:03;;;;;;;13.45;10.45;;;;;;;;;;5054990;28;20126;-52
2023/03/01 10:53:30;;;;;;;15.00;11.03;;;;;;;;;;5054737;28;20032;-53
2023/03/01 10:55:58;;;;;;;15.50;10.48;;;;;;;;;;5055126;28;20025;-54
2023/03/01 10:58:24;;;;;;;16.42;10.77;;;;;;;;;;5054783;28;20037;-54
2023/03/01 11:00:50;;;;;;;13.23;10.27;;;;;;;;;;5054468;28;20132;-53
2023/03/01 11:03:18;;;;;;;12.60;10.43;;;;;;;;;;5054354;28;20037;-55
2023/03/01 11:06:03;;;;;;;12.75;10.35;;;;;;;;;;5055051;28;20025;-56
2023/03/01 11:08:31;;;;;;;14.35;10.77;;;;;;;;;;5054362;28;20035;-56
2023/03/01 11:11:15;;;;;;;14.98;10.25;;;;;;;;;;5054756;28;20375;-57
2023/03/01 11:14:00;;;;;;;13.07;11.15;;;;;;;;;;5054151;28;20139;-57
2023/03/01 11:16:27;;;;;;;6.65;4.97;;;;;;;;;;5054422;28;20025;-55
2023/03/01 11:18:58;;;;;;;12.23;8.88;;;;;;;;;;5054905;28;20013;-54
2023/03/01 11:21:25;;;;;;;12.32;9.27;;;;;;;;;;5054386;28;20021;-55
2023/03/01 11:23:52;;;;;;;12.43;8.68;;;;;;;;;;5053898;28;20036;-55
2023/03/01 11:26:18;;;;;;;12.02;9.18;;;;;;;;;;5054076;28;20065;-55
2023/03/01 11:28:47;;;;;;;15.70;9.80;;;;;;;;;;5052897;28;20386;-57
2023/03/01 11:31:14;;;;;;;16.88;11.85;;;;;;;;;;5054207;28;20025;-57
2023/03/01 11:33:54;;;;;;;17.92;11.27;;;;;;;;;;5053772;28;20379;-55
2023/03/01 11:36:20;;;;;;;11.43;8.85;;;;;;;;;;5054065;28;20025;-57
2023/03/01 11:38:46;;;;;;;8.60;7.72;;;;;;;;;;5054138;28;20040;-57
2023/03/01 11:41:21;;;;;;;11.95;10.70;;;;;;;;;;5053586;28;20032;-56
2023/03/01 11:43:50;;;;;;;12.57;10.57;;;;;;;;;;5053590;28;20044;-56
2023/03/01 11:46:31;;;;;;;11.55;8.82;;;;;;;;;;5053970;28;20052;-57
2023/03/01 11:49:32;;;;;;;10.82;9.10;;;;;;;;;;5054423;28;20102;-57
2023/03/01 11:52:12;;;;;;;18.13;10.98;;;;;;;;;;5053906;28;20025;-57
2023/03/01 11:54:50;;;;;;;14.23;10.60;;;;;;;;;;5054169;28;20059;-56
2023/03/01 11:57:19;;;;;;;14.25;10.27;;;;;;;;;;5053614;28;20049;-57
2023/03/01 12:00:00;;;;;;;10.00;8.50;;;;;;;;;;5053167;28;20029;-57
2023/03/01 12:02:35;;;;;;;12.98;9.70;;;;;;;;;;5053391;28;20041;-57
2023/03/01 12:05:20;;;;;;;10.75;8.23;;;;;;;;;;5053790;28;20104;-56
2023/03/01 12:07:57;;;;;;;12.07;9.65;;;;;;;;;;5053423;28;20098;-55
2023/03/01 12:10:46;;;;;;;13.88;9.32;;;;;;;;;;5053440;28;20558;-57
2023/03/01 12:13:24;;;;;;;14.00;9.50;;;;;;;;;;5050003;28;20391;-57
2023/03/01 12:16:04;;;;;;;10.23;9.25;;;;;;;;;;5053296;28;20029;-55
2023/03/01 12:18:39;;;;;;;13.45;10.35;;;;;;;;;;5053557;28;20060;-55
2023/03/01 12:21:24;;;;;;;15.55;10.73;;;;;;;;;;5053514;28;20116;-57
2023/03/01 12:24:04;;;;;;;13.60;9.80;;;;;;;;;;5053125;28;20041;-56
2023/03/01 12:26:30;;;;;;;;;;;;;;;;;;5054316;28;20025;-57
2023/03/01 12:29:02;;;;;;;10.57;6.45;;;;;;;;;;5053412;28;19911;-55
2023/03/01 12:31:41;;;;;;;10.27;9.23;;;;;;;;;;5053661;28;20031;-56
2023/03/01 12:34:45;;;;;;;14.63;10.52;;;;;;;;;;5053381;28;20029;-57
2023/03/01 12:37:23;;;;;;;11.63;8.73;;;;;;;;;;5031273;28;20026;-57
2023/03/01 12:39:49;;;;;;;13.38;10.27;;;;;;;;;;5031162;28;20033;-57
2023/03/01 12:42:34;;;;;;;9.20;8.10;;;;;;;;;;5045543;28;20391;-57
2023/03/01 12:45:03;;;;;;;11.93;9.05;;;;;;;;;;5057591;28;20053;-57
2023/03/01 12:47:47;;;;;;;10.23;7.10;;;;;;;;;;5057157;28;20074;-55
2023/03/01 12:50:21;;;;;;;9.88;5.82;;;;;;;;;;5057102;28;20071;-57
2023/03/01 12:52:56;;;;;;;12.82;9.48;;;;;;;;;;5055635;28;20036;-54
2023/03/01 12:55:27;;;;;;;10.93;8.35;;;;;;;;;;5056949;28;20029;-56
2023/03/01 12:57:59;;;;;;;13.15;9.55;;;;;;;;;;5057103;28;20443;-57
2023/03/01 13:00:26;;;;;;;11.77;9.23;;;;;;;;;;5056988;28;20032;-56
2023/03/01 13:02:52;;;;;;;11.55;9.02;;;;;;;;;;5057299;28;20036;-57
2023/03/01 13:05:27;;;;;;;11.25;9.85;;;;;;;;;;5057167;28;20033;-56
2023/03/01 13:07:56;;;;;;;12.30;8.98;;;;;;;;;;5056833;28;20395;-54
2023/03/01 13:10:31;;;;;;;13.43;9.30;;;;;;;;;;5056707;28;20040;-56
2023/03/01 13:12:57;;;;;;;11.63;9.45;;;;;;;;;;5056871;28;20563;-57
2023/03/01 13:15:23;;;;;;;12.52;8.70;;;;;;;;;;5057114;28;20125;-57
2023/03/01 13:18:09;;;;;;;12.82;9.25;;;;;;;;;;5056559;28;20029;-56
2023/03/01 13:20:44;;;;;;;11.63;10.40;;;;;;;;;;5052445;28;20041;-56
2023/03/01 13:23:27;;;;;;;13.23;9.93;;;;;;;;;;5056056;28;20566;-57
2023/03/01 13:25:59;;;;;;;10.23;8.05;;;;;;;;;;5056912;28;20025;-57
2023/03/01 13:28:37;;;;;;;13.02;9.93;;;;;;;;;;5056236;28;20017;-57
2023/03/01 13:31:04;;;;;;;11.18;9.07;;;;;;;;;;5056345;28;20017;-56
2023/03/01 13:33:30;;;;;;;11.30;8.52;;;;;;;;;;5056362;28;20028;-56
2023/03/01 13:35:57;;;;;;;10.75;8.50;;;;;;;;;;5056757;28;20025;-57
2023/03/01 13:38:38;;;;;;;15.80;9.98;;;;;;;;;;5056713;28;20079;-57
2023/03/01 13:41:05;;;;;;;9.48;7.90;;;;;;;;;;5056419;28;20036;-57
2023/03/01 13:43:35;;;;;;;10.85;8.82;;;;;;;;;;5056269;28;20432;-56
2023/03/01 13:46:08;;;;;;;11.25;8.05;;;;;;;;;;5056558;28;20056;-56
2023/03/01 13:48:34;;;;;;;12.20;7.85;;;;;;;;;;5056771;28;20029;-56
2023/03/01 13:51:04;;;;;;;10.60;7.50;;;;;;;;;;5056702;28;20078;-55
2023/03/01 13:53:32;;;;;;;12.73;8.00;;;;;;;;;;5055977;28;20112;-57
2023/03/01 13:56:02;;;;;;;8.68;5.68;;;;;;;;;;5056689;28;20033;-57
2023/03/01 13:58:33;;;;;;;8.18;5.47;;;;;;;;;;5055787;28;20362;-56
2023/03/01 14:01:00;;;;;;;11.88;8.75;;;;;;;;;;5056647;28;20355;-56
2023/03/01 14:03:27;;;;;;;14.85;9.48;;;;;;;;;;5055602;28;20025;-56
2023/03/01 14:06:12;;;;;;;15.25;9.95;;;;;;;;;;5055800;28;20024;-57
2023/03/01 14:08:40;;;;;;;18.50;10.70;;;;;;;;;;5055734;28;20031;-58
2023/03/01 14:11:25;;;;;;;11.40;7.18;;;;;;;;;;5055576;28;20464;-56
2023/03/01 14:13:51;;;;;;;13.45;9.27;;;;;;;;;;5055595;28;20045;-56
2023/03/01 14:16:24;;;;;;;13.82;10.13;;;;;;;;;;5055428;28;20033;-56
2023/03/01 14:18:51;;;;;;;13.27;10.02;;;;;;;;;;5055955;28;20465;-53
2023/03/01 14:21:17;;;;;;;14.13;11.02;;;;;;;;;;5055299;28;20025;-55
2023/03/01 14:23:43;;;;;;;8.90;6.18;;;;;;;;;;5055064;28;20036;-58
2023/03/01 14:26:11;;;;;;;13.80;10.70;;;;;;;;;;5055406;28;20378;-58
2023/03/01 14:28:38;;;;;;;10.07;8.35;;;;;;;;;;5055564;28;20032;-59
2023/03/01 14:31:24;;;;;;;11.70;10.30;;;;;;;;;;5055872;28;20029;-53
2023/03/01 14:33:55;;;;;;;11.70;9.25;;;;;;;;;;5055031;28;20091;-55
2023/03/01 14:36:26;;;;;;;10.85;9.50;;;;;;;;;;5056072;28;20025;-56
2023/03/01 14:38:52;;;;;;;16.00;11.00;;;;;;;;;;5055396;28;20032;-55
2023/03/01 14:41:20;;;;;;;15.40;10.48;;;;;;;;;;5055280;28;20021;-56
2023/03/01 14:43:48;;;;;;;11.63;7.80;;;;;;;;;;5055442;28;20155;-55